sensor_id;sensor_type;location;lat;lon;timestamp;temperature;humidity
35541;DHT22;21650;48.840;9.162;2023-02-13T00:01:21;1.60;99.90
35541;DHT22;21650;48.840;9.162;2023-02-13T00:03:47;1.60;99.90
35541;DHT22;21650;48.840;9.162;2023-02-13T00:06:13;1.60;99.90
35541;DHT22;21650;48.840;9.162;2023-02-13T00:08:38;1.50;99.90
35541;DHT22;21650;48.840;9.162;2023-02-13T00:11:04;1.50;99.90
35541;DHT22;21650;48.840;9.162;2023-02-13T00:13:30;1.50;99.90
35541;DHT22;21650;48.840;9.162;2023-02-13T00:16:00;1.40;99.90
35541;DHT22;21650;48.840;9.162;2023-02-13T00:18:26;1.40;99.90
35541;DHT22;21650;48.840;9.162;2023-02-13T00:21:03;1.30;99.90
35541;DHT22;21650;48.840;9.162;2023-02-13T00:23:30;1.30;99.90
35541;DHT22;21650;48.840;9.162;2023-02-13T00:25:57;1.30;99.90
35541;DHT22;21650;48.840;9.162;2023-02-13T00:28:23;1.30;99.90
35541;DHT22;21650;48.840;9.162;2023-02-13T00:30:48;1.30;99.90
35541;DHT22;21650;48.840;9.162;2023-02-13T00:33:14;1.30;99.90
35541;DHT22;21650;48.840;9.162;2023-02-13T00:35:40;1.20;99.90
35541;DHT22;21650;48.840;9.162;2023-02-13T00:38:05;1.20;99.90
35541;DHT22;21650;48.840;9.162;2023-02-13T00:40:31;1.20;99.90
35541;DHT22;21650;48.840;9.162;2023-02-13T00:42:56;1.10;99.90
35541;DHT22;21650;48.840;9.162;2023-02-13T00:45:22;1.10;99.90
35541;DHT22;21650;48.840;9.162;2023-02-13T00:47:47;1.10;99.90
35541;DHT22;21650;48.840;9.162;2023-02-13T00:50:13;1.10;99.90
35541;DHT22;21650;48.840;9.162;2023-02-13T00:52:39;1.10;99.90
35541;DHT22;21650;48.840;9.162;2023-02-13T00:55:05;1.10;99.90
35541;DHT22;21650;48.840;9.162;2023-02-13T00:57:30;1.10;99.90
35541;DHT22;21650;48.840;9.162;2023-02-13T00:59:57;1.00;99.90
35541;DHT22;21650;48.840;9.162;2023-02-13T01:02:22;1.00;99.90
35541;DHT22;21650;48.840;9.162;2023-02-13T01:04:48;0.90;99.90
35541;DHT22;21650;48.840;9.162;2023-02-13T01:07:14;0.90;99.90
35541;DHT22;21650;48.840;9.162;2023-02-13T01:09:39;0.90;99.90
35541;DHT22;21650;48.840;9.162;2023-02-13T01:12:05;0.90;99.90
35541;DHT22;21650;48.840;9.162;2023-02-13T01:14:31;0.90;99.90
35541;DHT22;21650;48.840;9.162;2023-02-13T01:16:57;1.00;99.90
35541;DHT22;21650;48.840;9.162;2023-02-13T01:19:22;0.90;99.90
35541;DHT22;21650;48.840;9.162;2023-02-13T01:21:48;0.90;99.90
35541;DHT22;21650;48.840;9.162;2023-02-13T01:24:13;1.00;99.90
35541;DHT22;21650;48.840;9.162;2023-02-13T01:26:39;0.90;99.90
35541;DHT22;21650;48.840;9.162;2023-02-13T01:29:05;0.90;99.90
35541;DHT22;21650;48.840;9.162;2023-02-13T01:31:31;0.90;99.90
35541;DHT22;21650;48.840;9.162;2023-02-13T01:33:57;0.80;99.90
35541;DHT22;21650;48.840;9.162;2023-02-13T01:36:23;0.80;99.90
35541;DHT22;21650;48.840;9.162;2023-02-13T01:38:53;0.80;99.90
35541;DHT22;21650;48.840;9.162;2023-02-13T01:41:19;0.70;99.90
35541;DHT22;21650;48.840;9.162;2023-02-13T01:43:51;0.70;99.90
35541;DHT22;21650;48.840;9.162;2023-02-13T01:46:22;0.70;99.90
35541;DHT22;21650;48.840;9.162;2023-02-13T01:48:50;0.70;99.90
35541;DHT22;21650;48.840;9.162;2023-02-13T01:51:21;0.60;99.90
35541;DHT22;21650;48.840;9.162;2023-02-13T01:53:52;0.60;99.90
35541;DHT22;21650;48.840;9.162;2023-02-13T01:56:36;0.60;99.90
35541;DHT22;21650;48.840;9.162;2023-02-13T01:59:06;0.60;99.90
35541;DHT22;21650;48.840;9.162;2023-02-13T02:01:33;0.60;99.90
35541;DHT22;21650;48.840;9.162;2023-02-13T02:04:03;0.50;99.90
35541;DHT22;21650;48.840;9.162;2023-02-13T02:06:34;0.50;99.90
35541;DHT22;21650;48.840;9.162;2023-02-13T02:09:07;0.50;99.90
35541;DHT22;21650;48.840;9.162;2023-02-13T02:11:44;0.50;99.90
35541;DHT22;21650;48.840;9.162;2023-02-13T02:14:13;0.50;99.90
35541;DHT22;21650;48.840;9.162;2023-02-13T02:16:38;0.50;99.90
35541;DHT22;21650;48.840;9.162;2023-02-13T02:22:04;0.50;99.90
35541;DHT22;21650;48.840;9.162;2023-02-13T02:33:32;0.50;99.90
35541;DHT22;21650;48.840;9.162;2023-02-13T02:47:27;0.50;99.90
35541;DHT22;21650;48.840;9.162;2023-02-13T02:50:46;0.40;99.90
35541;DHT22;21650;48.840;9.162;2023-02-13T02:53:38;0.40;99.90
35541;DHT22;21650;48.840;9.162;2023-02-13T02:56:26;0.50;99.90
35541;DHT22;21650;48.840;9.162;2023-02-13T02:59:09;0.40;99.90
35541;DHT22;21650;48.840;9.162;2023-02-13T03:01:55;0.50;99.90
35541;DHT22;21650;48.840;9.162;2023-02-13T03:04:45;0.50;99.90
35541;DHT22;21650;48.840;9.162;2023-02-13T03:07:30;0.40;99.90
35541;DHT22;21650;48.840;9.162;2023-02-13T03:09:59;0.40;99.90
35541;DHT22;21650;48.840;9.162;2023-02-13T03:15:32;0.30;99.90
35541;DHT22;21650;48.840;9.162;2023-02-13T03:17:58;0.30;99.90
35541;DHT22;21650;48.840;9.162;2023-02-13T03:20:59;0.30;99.90
35541;DHT22;21650;48.840;9.162;2023-02-13T03:23:55;0.30;99.90
35541;DHT22;21650;48.840;9.162;2023-02-13T03:26:36;0.30;99.90
35541;DHT22;21650;48.840;9.162;2023-02-13T03:38:26;0.30;99.90
35541;DHT22;21650;48.840;9.162;2023-02-13T03:41:04;0.30;99.90
35541;DHT22;21650;48.840;9.162;2023-02-13T03:46:44;0.20;99.90
35541;DHT22;21650;48.840;9.162;2023-02-13T03:49:33;0.20;99.90
35541;DHT22;21650;48.840;9.162;2023-02-13T03:55:16;0.10;99.90
35541;DHT22;21650;48.840;9.162;2023-02-13T03:58:07;0.10;99.90
35541;DHT22;21650;48.840;9.162;2023-02-13T04:00:56;0.00;99.90
35541;DHT22;21650;48.840;9.162;2023-02-13T04:03:55;0.00;99.90
35541;DHT22;21650;48.840;9.162;2023-02-13T04:06:33;0.00;99.90
35541;DHT22;21650;48.840;9.162;2023-02-13T04:08:59;0.00;99.90
35541;DHT22;21650;48.840;9.162;2023-02-13T04:17:06;-0.10;99.90
35541;DHT22;21650;48.840;9.162;2023-02-13T04:19:33;-0.20;99.90
35541;DHT22;21650;48.840;9.162;2023-02-13T04:22:00;-0.30;99.90
35541;DHT22;21650;48.840;9.162;2023-02-13T04:24:27;-0.30;99.90
35541;DHT22;21650;48.840;9.162;2023-02-13T04:26:53;-0.20;99.90
35541;DHT22;21650;48.840;9.162;2023-02-13T04:29:23;-0.20;99.90
35541;DHT22;21650;48.840;9.162;2023-02-13T04:31:49;-0.20;99.90
35541;DHT22;21650;48.840;9.162;2023-02-13T04:34:15;-0.20;99.90
35541;DHT22;21650;48.840;9.162;2023-02-13T04:36:41;-0.20;99.90
35541;DHT22;21650;48.840;9.162;2023-02-13T04:39:07;-0.20;99.90
35541;DHT22;21650;48.840;9.162;2023-02-13T04:41:32;-0.20;99.90
35541;DHT22;21650;48.840;9.162;2023-02-13T04:43:58;-0.20;99.90
35541;DHT22;21650;48.840;9.162;2023-02-13T04:46:24;-0.20;99.90
35541;DHT22;21650;48.840;9.162;2023-02-13T04:48:49;-0.20;99.90
35541;DHT22;21650;48.840;9.162;2023-02-13T04:51:15;-0.20;99.90
35541;DHT22;21650;48.840;9.162;2023-02-13T04:53:41;-0.20;99.90
35541;DHT22;21650;48.840;9.162;2023-02-13T04:56:06;-0.20;99.90
35541;DHT22;21650;48.840;9.162;2023-02-13T04:58:32;-0.20;99.90
35541;DHT22;21650;48.840;9.162;2023-02-13T05:00:58;-0.30;99.90
35541;DHT22;21650;48.840;9.162;2023-02-13T05:03:23;-0.30;99.90
35541;DHT22;21650;48.840;9.162;2023-02-13T05:05:49;-0.20;99.90
35541;DHT22;21650;48.840;9.162;2023-02-13T05:08:14;-0.30;99.90
35541;DHT22;21650;48.840;9.162;2023-02-13T05:10:40;-0.30;99.90
35541;DHT22;21650;48.840;9.162;2023-02-13T05:13:06;-0.30;99.90
35541;DHT22;21650;48.840;9.162;2023-02-13T05:15:31;-0.30;99.90
35541;DHT22;21650;48.840;9.162;2023-02-13T05:17:57;-0.40;99.90
35541;DHT22;21650;48.840;9.162;2023-02-13T05:20:23;-0.40;99.90
35541;DHT22;21650;48.840;9.162;2023-02-13T05:22:51;-0.40;99.90
35541;DHT22;21650;48.840;9.162;2023-02-13T05:25:37;-0.40;99.90
35541;DHT22;21650;48.840;9.162;2023-02-13T05:28:04;-0.40;99.90
35541;DHT22;21650;48.840;9.162;2023-02-13T05:30:29;-0.40;99.90
35541;DHT22;21650;48.840;9.162;2023-02-13T05:32:55;-0.40;99.90
35541;DHT22;21650;48.840;9.162;2023-02-13T05:35:21;-0.40;99.90
35541;DHT22;21650;48.840;9.162;2023-02-13T05:37:47;-0.40;99.90
35541;DHT22;21650;48.840;9.162;2023-02-13T05:40:13;-0.50;99.90
35541;DHT22;21650;48.840;9.162;2023-02-13T05:42:40;-0.50;99.90
35541;DHT22;21650;48.840;9.162;2023-02-13T05:45:06;-0.50;99.90
35541;DHT22;21650;48.840;9.162;2023-02-13T05:47:32;-0.50;99.90
35541;DHT22;21650;48.840;9.162;2023-02-13T05:49:58;-0.50;99.90
35541;DHT22;21650;48.840;9.162;2023-02-13T05:52:24;-0.50;99.90
35541;DHT22;21650;48.840;9.162;2023-02-13T05:54:50;-0.50;99.90
35541;DHT22;21650;48.840;9.162;2023-02-13T05:57:15;-0.50;99.90
35541;DHT22;21650;48.840;9.162;2023-02-13T05:59:41;-0.50;99.90
35541;DHT22;21650;48.840;9.162;2023-02-13T06:02:06;-0.60;99.90
35541;DHT22;21650;48.840;9.162;2023-02-13T06:04:32;-0.60;99.90
35541;DHT22;21650;48.840;9.162;2023-02-13T06:06:58;-0.50;99.90
35541;DHT22;21650;48.840;9.162;2023-02-13T06:09:23;-0.50;99.90
35541;DHT22;21650;48.840;9.162;2023-02-13T06:11:49;-0.50;99.90
35541;DHT22;21650;48.840;9.162;2023-02-13T06:14:15;-0.60;99.90
35541;DHT22;21650;48.840;9.162;2023-02-13T06:16:40;-0.60;99.90
35541;DHT22;21650;48.840;9.162;2023-02-13T06:19:06;-0.60;99.90
35541;DHT22;21650;48.840;9.162;2023-02-13T06:21:32;-0.60;99.90
35541;DHT22;21650;48.840;9.162;2023-02-13T06:24:05;-0.60;99.90
35541;DHT22;21650;48.840;9.162;2023-02-13T06:26:32;-0.60;99.90
35541;DHT22;21650;48.840;9.162;2023-02-13T06:28:57;-0.60;99.90
35541;DHT22;21650;48.840;9.162;2023-02-13T06:31:23;-0.60;99.90
35541;DHT22;21650;48.840;9.162;2023-02-13T06:33:49;-0.70;99.90
35541;DHT22;21650;48.840;9.162;2023-02-13T06:36:14;-0.60;99.90
35541;DHT22;21650;48.840;9.162;2023-02-13T06:38:40;-0.60;99.90
35541;DHT22;21650;48.840;9.162;2023-02-13T06:41:05;-0.60;99.90
35541;DHT22;21650;48.840;9.162;2023-02-13T06:43:31;-0.70;99.90
35541;DHT22;21650;48.840;9.162;2023-02-13T06:45:57;-0.70;99.90
35541;DHT22;21650;48.840;9.162;2023-02-13T06:48:23;-0.70;99.90
35541;DHT22;21650;48.840;9.162;2023-02-13T06:50:49;-0.70;99.90
35541;DHT22;21650;48.840;9.162;2023-02-13T06:53:17;-0.60;99.90
35541;DHT22;21650;48.840;9.162;2023-02-13T06:55:45;-0.70;99.90
35541;DHT22;21650;48.840;9.162;2023-02-13T06:58:11;-0.60;99.90
35541;DHT22;21650;48.840;9.162;2023-02-13T07:00:36;-0.60;99.90
35541;DHT22;21650;48.840;9.162;2023-02-13T07:03:04;-0.70;99.90
35541;DHT22;21650;48.840;9.162;2023-02-13T07:05:31;-0.60;99.90
35541;DHT22;21650;48.840;9.162;2023-02-13T07:07:57;-0.60;99.90
35541;DHT22;21650;48.840;9.162;2023-02-13T07:10:22;-0.50;99.90
35541;DHT22;21650;48.840;9.162;2023-02-13T07:12:48;-0.60;99.90
35541;DHT22;21650;48.840;9.162;2023-02-13T07:15:15;-0.50;99.90
35541;DHT22;21650;48.840;9.162;2023-02-13T07:17:41;-0.40;99.90
35541;DHT22;21650;48.840;9.162;2023-02-13T07:20:07;-0.40;99.90
35541;DHT22;21650;48.840;9.162;2023-02-13T07:22:33;-0.40;99.90
35541;DHT22;21650;48.840;9.162;2023-02-13T07:24:59;-0.40;99.90
35541;DHT22;21650;48.840;9.162;2023-02-13T07:27:25;-0.30;99.90
35541;DHT22;21650;48.840;9.162;2023-02-13T07:29:54;-0.20;99.90
35541;DHT22;21650;48.840;9.162;2023-02-13T07:32:20;-0.20;99.90
35541;DHT22;21650;48.840;9.162;2023-02-13T07:34:46;-0.10;99.90
35541;DHT22;21650;48.840;9.162;2023-02-13T07:37:11;0.00;99.90
35541;DHT22;21650;48.840;9.162;2023-02-13T07:39:37;0.00;99.90
35541;DHT22;21650;48.840;9.162;2023-02-13T07:42:04;0.10;99.90
35541;DHT22;21650;48.840;9.162;2023-02-13T07:44:30;0.20;99.90
35541;DHT22;21650;48.840;9.162;2023-02-13T07:46:56;0.20;99.90
35541;DHT22;21650;48.840;9.162;2023-02-13T07:49:21;0.20;99.90
35541;DHT22;21650;48.840;9.162;2023-02-13T07:51:47;0.30;99.90
35541;DHT22;21650;48.840;9.162;2023-02-13T07:54:12;0.30;99.90
35541;DHT22;21650;48.840;9.162;2023-02-13T07:56:38;0.40;99.90
35541;DHT22;21650;48.840;9.162;2023-02-13T07:59:04;0.40;99.90
35541;DHT22;21650;48.840;9.162;2023-02-13T08:01:29;0.40;99.90
35541;DHT22;21650;48.840;9.162;2023-02-13T08:03:55;0.50;99.90
35541;DHT22;21650;48.840;9.162;2023-02-13T08:06:20;0.60;99.90
35541;DHT22;21650;48.840;9.162;2023-02-13T08:08:46;0.70;99.90
35541;DHT22;21650;48.840;9.162;2023-02-13T08:11:23;0.80;99.90
35541;DHT22;21650;48.840;9.162;2023-02-13T08:14:10;0.90;99.90
35541;DHT22;21650;48.840;9.162;2023-02-13T08:16:35;0.90;99.90
35541;DHT22;21650;48.840;9.162;2023-02-13T08:19:01;1.10;99.90
35541;DHT22;21650;48.840;9.162;2023-02-13T08:21:27;1.20;99.90
35541;DHT22;21650;48.840;9.162;2023-02-13T08:23:52;1.40;99.90
35541;DHT22;21650;48.840;9.162;2023-02-13T08:26:18;1.30;99.90
35541;DHT22;21650;48.840;9.162;2023-02-13T08:28:43;1.50;99.90
35541;DHT22;21650;48.840;9.162;2023-02-13T08:31:10;1.50;99.90
35541;DHT22;21650;48.840;9.162;2023-02-13T08:33:36;1.60;99.90
35541;DHT22;21650;48.840;9.162;2023-02-13T08:36:03;1.60;99.90
35541;DHT22;21650;48.840;9.162;2023-02-13T08:38:28;1.80;99.90
35541;DHT22;21650;48.840;9.162;2023-02-13T08:40:55;1.80;99.90
35541;DHT22;21650;48.840;9.162;2023-02-13T08:43:21;2.00;99.90
35541;DHT22;21650;48.840;9.162;2023-02-13T08:45:47;2.10;99.90
35541;DHT22;21650;48.840;9.162;2023-02-13T08:48:12;2.20;99.90
35541;DHT22;21650;48.840;9.162;2023-02-13T08:50:38;2.20;99.90
35541;DHT22;21650;48.840;9.162;2023-02-13T08:53:04;2.30;99.90
35541;DHT22;21650;48.840;9.162;2023-02-13T08:55:29;2.30;99.90
35541;DHT22;21650;48.840;9.162;2023-02-13T08:57:59;2.50;99.90
35541;DHT22;21650;48.840;9.162;2023-02-13T09:00:25;2.60;99.90
35541;DHT22;21650;48.840;9.162;2023-02-13T09:02:51;2.60;99.90
35541;DHT22;21650;48.840;9.162;2023-02-13T09:05:16;2.60;99.90
35541;DHT22;21650;48.840;9.162;2023-02-13T09:07:42;2.60;99.90
35541;DHT22;21650;48.840;9.162;2023-02-13T09:10:08;2.80;99.90
35541;DHT22;21650;48.840;9.162;2023-02-13T09:12:33;2.90;99.90
35541;DHT22;21650;48.840;9.162;2023-02-13T09:14:59;3.00;99.90
35541;DHT22;21650;48.840;9.162;2023-02-13T09:17:24;3.20;99.90
35541;DHT22;21650;48.840;9.162;2023-02-13T09:19:50;3.20;99.90
35541;DHT22;21650;48.840;9.162;2023-02-13T09:22:16;3.30;99.90
35541;DHT22;21650;48.840;9.162;2023-02-13T09:24:41;3.50;99.90
35541;DHT22;21650;48.840;9.162;2023-02-13T09:27:07;3.60;99.90
35541;DHT22;21650;48.840;9.162;2023-02-13T09:29:33;3.60;99.90
35541;DHT22;21650;48.840;9.162;2023-02-13T09:31:59;3.80;99.90
35541;DHT22;21650;48.840;9.162;2023-02-13T09:34:25;3.70;99.90
35541;DHT22;21650;48.840;9.162;2023-02-13T09:36:51;3.80;99.90
35541;DHT22;21650;48.840;9.162;2023-02-13T09:39:17;3.90;99.90
35541;DHT22;21650;48.840;9.162;2023-02-13T09:41:44;4.00;99.90
35541;DHT22;21650;48.840;9.162;2023-02-13T09:44:26;4.10;99.90
35541;DHT22;21650;48.840;9.162;2023-02-13T09:50:10;4.30;99.90
35541;DHT22;21650;48.840;9.162;2023-02-13T09:52:38;4.40;99.90
35541;DHT22;21650;48.840;9.162;2023-02-13T09:55:42;4.50;99.90
35541;DHT22;21650;48.840;9.162;2023-02-13T10:00:54;4.30;99.90
35541;DHT22;21650;48.840;9.162;2023-02-13T10:03:41;4.50;99.90
35541;DHT22;21650;48.840;9.162;2023-02-13T10:06:17;4.40;99.90
35541;DHT22;21650;48.840;9.162;2023-02-13T10:17:01;4.80;99.90
35541;DHT22;21650;48.840;9.162;2023-02-13T10:19:46;4.70;99.90
35541;DHT22;21650;48.840;9.162;2023-02-13T10:24:56;4.70;99.90
35541;DHT22;21650;48.840;9.162;2023-02-13T10:30:16;4.90;99.90
35541;DHT22;21650;48.840;9.162;2023-02-13T10:38:37;5.50;99.90
35541;DHT22;21650;48.840;9.162;2023-02-13T10:44:04;5.60;99.90
35541;DHT22;21650;48.840;9.162;2023-02-13T10:49:22;5.70;99.90
35541;DHT22;21650;48.840;9.162;2023-02-13T10:57:34;5.80;99.90
35541;DHT22;21650;48.840;9.162;2023-02-13T11:02:48;5.50;99.90
35541;DHT22;21650;48.840;9.162;2023-02-13T11:07:44;5.80;99.90
35541;DHT22;21650;48.840;9.162;2023-02-13T11:10:22;6.00;99.90
35541;DHT22;21650;48.840;9.162;2023-02-13T11:12:49;6.10;99.90
35541;DHT22;21650;48.840;9.162;2023-02-13T11:15:28;6.30;99.90
35541;DHT22;21650;48.840;9.162;2023-02-13T11:17:59;6.40;99.90
35541;DHT22;21650;48.840;9.162;2023-02-13T11:21:04;6.30;99.90
35541;DHT22;21650;48.840;9.162;2023-02-13T11:25:59;6.10;99.90
35541;DHT22;21650;48.840;9.162;2023-02-13T11:28:27;6.40;99.90
35541;DHT22;21650;48.840;9.162;2023-02-13T11:31:08;6.30;99.90
35541;DHT22;21650;48.840;9.162;2023-02-13T11:33:34;6.60;99.90
35541;DHT22;21650;48.840;9.162;2023-02-13T11:36:05;6.70;99.90
35541;DHT22;21650;48.840;9.162;2023-02-13T11:38:32;6.80;99.90
35541;DHT22;21650;48.840;9.162;2023-02-13T11:41:14;6.90;99.90
35541;DHT22;21650;48.840;9.162;2023-02-13T11:43:56;6.90;99.90
35541;DHT22;21650;48.840;9.162;2023-02-13T11:46:28;7.00;99.90
35541;DHT22;21650;48.840;9.162;2023-02-13T11:51:38;7.00;99.90
35541;DHT22;21650;48.840;9.162;2023-02-13T11:54:05;7.20;99.90
35541;DHT22;21650;48.840;9.162;2023-02-13T11:56:50;7.00;99.90
35541;DHT22;21650;48.840;9.162;2023-02-13T11:59:15;7.10;99.90
35541;DHT22;21650;48.840;9.162;2023-02-13T12:01:42;7.30;99.90
35541;DHT22;21650;48.840;9.162;2023-02-13T12:04:16;7.30;99.90
35541;DHT22;21650;48.840;9.162;2023-02-13T12:07:01;7.30;99.90
35541;DHT22;21650;48.840;9.162;2023-02-13T12:09:28;7.40;99.90
35541;DHT22;21650;48.840;9.162;2023-02-13T12:11:57;7.60;99.90
35541;DHT22;21650;48.840;9.162;2023-02-13T12:14:37;7.40;99.90
35541;DHT22;21650;48.840;9.162;2023-02-13T12:17:07;7.60;99.90
35541;DHT22;21650;48.840;9.162;2023-02-13T12:19:40;7.70;99.90
35541;DHT22;21650;48.840;9.162;2023-02-13T12:28:10;7.50;99.90
35541;DHT22;21650;48.840;9.162;2023-02-13T12:30:58;7.70;99.90
35541;DHT22;21650;48.840;9.162;2023-02-13T12:39:03;7.60;99.90
35541;DHT22;21650;48.840;9.162;2023-02-13T12:44:42;7.50;99.90
35541;DHT22;21650;48.840;9.162;2023-02-13T12:50:25;7.60;99.90
35541;DHT22;21650;48.840;9.162;2023-02-13T13:04:18;7.90;99.90
35541;DHT22;21650;48.840;9.162;2023-02-13T13:12:32;7.70;99.90
35541;DHT22;21650;48.840;9.162;2023-02-13T13:18:04;7.90;99.90
35541;DHT22;21650;48.840;9.162;2023-02-13T13:23:26;8.20;99.90
35541;DHT22;21650;48.840;9.162;2023-02-13T13:26:04;8.10;99.90
35541;DHT22;21650;48.840;9.162;2023-02-13T13:28:40;8.40;99.90
35541;DHT22;21650;48.840;9.162;2023-02-13T13:31:07;8.40;99.90
35541;DHT22;21650;48.840;9.162;2023-02-13T13:33:34;8.50;99.90
35541;DHT22;21650;48.840;9.162;2023-02-13T13:38:58;8.20;99.90
35541;DHT22;21650;48.840;9.162;2023-02-13T13:49:51;8.60;99.90
35541;DHT22;21650;48.840;9.162;2023-02-13T13:54:47;8.50;99.90
35541;DHT22;21650;48.840;9.162;2023-02-13T13:57:25;8.70;99.90
35541;DHT22;21650;48.840;9.162;2023-02-13T13:59:57;8.50;99.90
35541;DHT22;21650;48.840;9.162;2023-02-13T14:05:17;8.60;99.90
35541;DHT22;21650;48.840;9.162;2023-02-13T14:07:43;8.60;99.90
35541;DHT22;21650;48.840;9.162;2023-02-13T14:15:49;8.60;99.90
35541;DHT22;21650;48.840;9.162;2023-02-13T14:28:37;8.70;99.90
35541;DHT22;21650;48.840;9.162;2023-02-13T14:31:15;8.70;99.90
35541;DHT22;21650;48.840;9.162;2023-02-13T14:36:30;8.80;99.90
35541;DHT22;21650;48.840;9.162;2023-02-13T14:41:57;8.70;99.90
35541;DHT22;21650;48.840;9.162;2023-02-13T14:47:42;8.90;99.90
35541;DHT22;21650;48.840;9.162;2023-02-13T14:50:15;8.80;99.90
35541;DHT22;21650;48.840;9.162;2023-02-13T14:52:44;8.70;99.90
35541;DHT22;21650;48.840;9.162;2023-02-13T14:55:21;8.60;99.90
35541;DHT22;21650;48.840;9.162;2023-02-13T14:57:52;8.60;99.90
35541;DHT22;21650;48.840;9.162;2023-02-13T15:03:24;8.70;99.90
35541;DHT22;21650;48.840;9.162;2023-02-13T15:05:53;8.70;99.90
35541;DHT22;21650;48.840;9.162;2023-02-13T15:08:27;8.70;99.90
35541;DHT22;21650;48.840;9.162;2023-02-13T15:10:54;8.80;99.90
35541;DHT22;21650;48.840;9.162;2023-02-13T15:13:23;8.70;99.90
35541;DHT22;21650;48.840;9.162;2023-02-13T15:16:11;8.70;99.90
35541;DHT22;21650;48.840;9.162;2023-02-13T15:18:48;8.60;99.90
35541;DHT22;21650;48.840;9.162;2023-02-13T15:21:20;8.30;99.90
35541;DHT22;21650;48.840;9.162;2023-02-13T15:23:52;8.30;99.90
35541;DHT22;21650;48.840;9.162;2023-02-13T15:26:22;8.20;99.90
35541;DHT22;21650;48.840;9.162;2023-02-13T15:29:00;8.20;99.90
35541;DHT22;21650;48.840;9.162;2023-02-13T15:31:30;8.20;99.90
35541;DHT22;21650;48.840;9.162;2023-02-13T15:33:58;8.10;99.90
35541;DHT22;21650;48.840;9.162;2023-02-13T15:36:25;8.30;99.90
35541;DHT22;21650;48.840;9.162;2023-02-13T15:39:05;8.40;99.90
35541;DHT22;21650;48.840;9.162;2023-02-13T15:41:36;8.30;99.90
35541;DHT22;21650;48.840;9.162;2023-02-13T15:44:03;8.20;99.90
35541;DHT22;21650;48.840;9.162;2023-02-13T15:46:31;8.10;99.90
35541;DHT22;21650;48.840;9.162;2023-02-13T15:49:03;8.10;99.90
35541;DHT22;21650;48.840;9.162;2023-02-13T15:51:30;7.90;99.90
35541;DHT22;21650;48.840;9.162;2023-02-13T15:53:58;7.90;99.90
35541;DHT22;21650;48.840;9.162;2023-02-13T15:56:26;7.70;99.90
35541;DHT22;21650;48.840;9.162;2023-02-13T15:58:53;7.90;99.90
35541;DHT22;21650;48.840;9.162;2023-02-13T16:01:19;7.80;99.90
35541;DHT22;21650;48.840;9.162;2023-02-13T16:03:49;7.70;99.90
35541;DHT22;21650;48.840;9.162;2023-02-13T16:06:17;7.60;99.90
35541;DHT22;21650;48.840;9.162;2023-02-13T16:08:54;7.60;99.90
35541;DHT22;21650;48.840;9.162;2023-02-13T16:11:38;7.50;99.90
35541;DHT22;21650;48.840;9.162;2023-02-13T16:14:22;7.50;99.90
35541;DHT22;21650;48.840;9.162;2023-02-13T16:21:49;7.20;99.90
35541;DHT22;21650;48.840;9.162;2023-02-13T16:24:15;7.20;99.90
35541;DHT22;21650;48.840;9.162;2023-02-13T16:26:42;7.10;99.90
35541;DHT22;21650;48.840;9.162;2023-02-13T16:29:10;7.10;99.90
35541;DHT22;21650;48.840;9.162;2023-02-13T16:31:38;7.00;99.90
35541;DHT22;21650;48.840;9.162;2023-02-13T16:34:34;7.00;99.90
35541;DHT22;21650;48.840;9.162;2023-02-13T16:37:00;7.00;99.90
35541;DHT22;21650;48.840;9.162;2023-02-13T16:39:31;6.80;99.90
35541;DHT22;21650;48.840;9.162;2023-02-13T16:41:59;6.80;99.90
35541;DHT22;21650;48.840;9.162;2023-02-13T16:44:30;6.80;99.90
35541;DHT22;21650;48.840;9.162;2023-02-13T16:47:03;6.60;99.90
35541;DHT22;21650;48.840;9.162;2023-02-13T16:49:34;6.50;99.90
35541;DHT22;21650;48.840;9.162;2023-02-13T16:52:08;6.40;99.90
35541;DHT22;21650;48.840;9.162;2023-02-13T16:54:48;6.30;99.90
35541;DHT22;21650;48.840;9.162;2023-02-13T16:57:19;6.30;99.90
35541;DHT22;21650;48.840;9.162;2023-02-13T17:02:18;6.20;99.90
35541;DHT22;21650;48.840;9.162;2023-02-13T17:07:52;6.10;99.90
35541;DHT22;21650;48.840;9.162;2023-02-13T17:10:34;5.90;99.90
35541;DHT22;21650;48.840;9.162;2023-02-13T17:13:10;5.80;99.90
35541;DHT22;21650;48.840;9.162;2023-02-13T17:15:40;5.70;99.90
35541;DHT22;21650;48.840;9.162;2023-02-13T17:18:06;5.50;99.90
35541;DHT22;21650;48.840;9.162;2023-02-13T17:20:33;5.50;99.90
35541;DHT22;21650;48.840;9.162;2023-02-13T17:23:02;5.50;99.90
35541;DHT22;21650;48.840;9.162;2023-02-13T17:25:37;5.30;99.90
35541;DHT22;21650;48.840;9.162;2023-02-13T17:28:14;5.20;99.90
35541;DHT22;21650;48.840;9.162;2023-02-13T17:30:41;5.10;99.90
35541;DHT22;21650;48.840;9.162;2023-02-13T17:33:12;4.90;99.90
35541;DHT22;21650;48.840;9.162;2023-02-13T17:35:38;4.90;99.90
35541;DHT22;21650;48.840;9.162;2023-02-13T17:38:04;4.90;99.90
35541;DHT22;21650;48.840;9.162;2023-02-13T17:40:34;4.80;99.90
35541;DHT22;21650;48.840;9.162;2023-02-13T17:42:59;4.80;99.90
35541;DHT22;21650;48.840;9.162;2023-02-13T17:45:28;4.60;99.90
35541;DHT22;21650;48.840;9.162;2023-02-13T17:47:54;4.60;99.90
35541;DHT22;21650;48.840;9.162;2023-02-13T17:50:22;4.70;99.90
35541;DHT22;21650;48.840;9.162;2023-02-13T17:52:49;4.70;99.90
35541;DHT22;21650;48.840;9.162;2023-02-13T17:55:19;4.60;99.90
35541;DHT22;21650;48.840;9.162;2023-02-13T17:57:46;4.60;99.90
35541;DHT22;21650;48.840;9.162;2023-02-13T18:00:12;4.50;99.90
35541;DHT22;21650;48.840;9.162;2023-02-13T18:02:37;4.50;99.90
35541;DHT22;21650;48.840;9.162;2023-02-13T18:05:03;4.50;99.90
35541;DHT22;21650;48.840;9.162;2023-02-13T18:07:29;4.40;99.90
35541;DHT22;21650;48.840;9.162;2023-02-13T18:09:54;4.40;99.90
35541;DHT22;21650;48.840;9.162;2023-02-13T18:12:22;4.40;99.90
35541;DHT22;21650;48.840;9.162;2023-02-13T18:14:49;4.40;99.90
35541;DHT22;21650;48.840;9.162;2023-02-13T18:17:15;4.40;99.90
35541;DHT22;21650;48.840;9.162;2023-02-13T18:19:41;4.30;99.90
35541;DHT22;21650;48.840;9.162;2023-02-13T18:22:08;4.30;99.90
35541;DHT22;21650;48.840;9.162;2023-02-13T18:24:35;4.30;99.90
35541;DHT22;21650;48.840;9.162;2023-02-13T18:27:01;4.20;99.90
35541;DHT22;21650;48.840;9.162;2023-02-13T18:29:27;4.20;99.90
35541;DHT22;21650;48.840;9.162;2023-02-13T18:31:53;4.20;99.90
35541;DHT22;21650;48.840;9.162;2023-02-13T18:34:19;4.10;99.90
35541;DHT22;21650;48.840;9.162;2023-02-13T18:36:46;4.10;99.90
35541;DHT22;21650;48.840;9.162;2023-02-13T18:39:12;4.00;99.90
35541;DHT22;21650;48.840;9.162;2023-02-13T18:41:37;4.00;99.90
35541;DHT22;21650;48.840;9.162;2023-02-13T18:44:03;3.90;99.90
35541;DHT22;21650;48.840;9.162;2023-02-13T18:46:29;3.90;99.90
35541;DHT22;21650;48.840;9.162;2023-02-13T18:48:54;3.80;99.90
35541;DHT22;21650;48.840;9.162;2023-02-13T18:51:20;3.70;99.90
35541;DHT22;21650;48.840;9.162;2023-02-13T18:53:45;3.70;99.90
35541;DHT22;21650;48.840;9.162;2023-02-13T18:56:12;3.70;99.90
35541;DHT22;21650;48.840;9.162;2023-02-13T18:58:37;3.60;99.90
35541;DHT22;21650;48.840;9.162;2023-02-13T19:01:09;3.50;99.90
35541;DHT22;21650;48.840;9.162;2023-02-13T19:03:38;3.50;99.90
35541;DHT22;21650;48.840;9.162;2023-02-13T19:06:10;3.50;99.90
35541;DHT22;21650;48.840;9.162;2023-02-13T19:08:36;3.40;99.90